sensor_id;sensor_type;location;lat;lon;timestamp;P1;durP1;ratioP1;P2;durP2;ratioP2
77870;SDS011;67067;46.850;7.578;2023-06-22T00:02:15;10.75;;;4.90;;
77870;SDS011;67067;46.850;7.578;2023-06-22T00:04:19;11.40;;;4.90;;
77870;SDS011;67067;46.850;7.578;2023-06-22T00:05:21;14.52;;;5.60;;
77870;SDS011;67067;46.850;7.578;2023-06-22T00:07:25;17.20;;;5.17;;
77870;SDS011;67067;46.850;7.578;2023-06-22T00:08:26;13.32;;;5.05;;
77870;SDS011;67067;46.850;7.578;2023-06-22T00:09:28;17.52;;;5.97;;
77870;SDS011;67067;46.850;7.578;2023-06-22T00:11:33;9.85;;;4.55;;
77870;SDS011;67067;46.850;7.578;2023-06-22T00:12:35;14.02;;;5.15;;
77870;SDS011;67067;46.850;7.578;2023-06-22T00:14:39;13.15;;;5.35;;
77870;SDS011;67067;46.850;7.578;2023-06-22T00:15:46;13.30;;;4.97;;
77870;SDS011;67067;46.850;7.578;2023-06-22T00:16:47;11.55;;;5.20;;
77870;SDS011;67067;46.850;7.578;2023-06-22T00:17:51;10.80;;;5.38;;
77870;SDS011;67067;46.850;7.578;2023-06-22T00:18:55;12.30;;;5.18;;
77870;SDS011;67067;46.850;7.578;2023-06-22T00:21:01;13.10;;;5.18;;
77870;SDS011;67067;46.850;7.578;2023-06-22T00:23:07;14.23;;;5.20;;
77870;SDS011;67067;46.850;7.578;2023-06-22T00:24:09;16.33;;;5.47;;
77870;SDS011;67067;46.850;7.578;2023-06-22T00:25:14;12.43;;;5.63;;
77870;SDS011;67067;46.850;7.578;2023-06-22T00:26:21;13.63;;;5.80;;
77870;SDS011;67067;46.850;7.578;2023-06-22T00:27:23;15.30;;;5.07;;
77870;SDS011;67067;46.850;7.578;2023-06-22T00:29:27;11.15;;;4.95;;
77870;SDS011;67067;46.850;7.578;2023-06-22T00:30:30;14.07;;;5.65;;
77870;SDS011;67067;46.850;7.578;2023-06-22T00:31:35;13.63;;;5.20;;
77870;SDS011;67067;46.850;7.578;2023-06-22T00:32:37;15.98;;;5.40;;
77870;SDS011;67067;46.850;7.578;2023-06-22T00:33:38;18.10;;;5.97;;
77870;SDS011;67067;46.850;7.578;2023-06-22T00:35:42;18.87;;;5.30;;
77870;SDS011;67067;46.850;7.578;2023-06-22T00:36:44;10.82;;;5.10;;
77870;SDS011;67067;46.850;7.578;2023-06-22T00:39:52;15.35;;;5.20;;
77870;SDS011;67067;46.850;7.578;2023-06-22T00:40:55;11.05;;;5.13;;
77870;SDS011;67067;46.850;7.578;2023-06-22T00:41:59;15.60;;;5.07;;
77870;SDS011;67067;46.850;7.578;2023-06-22T00:43:01;12.05;;;5.45;;
77870;SDS011;67067;46.850;7.578;2023-06-22T00:44:03;12.68;;;5.10;;
77870;SDS011;67067;46.850;7.578;2023-06-22T00:45:06;15.90;;;5.28;;
77870;SDS011;67067;46.850;7.578;2023-06-22T00:46:08;9.45;;;4.70;;
77870;SDS011;67067;46.850;7.578;2023-06-22T00:47:11;14.65;;;5.32;;
77870;SDS011;67067;46.850;7.578;2023-06-22T00:48:16;11.90;;;5.15;;
77870;SDS011;67067;46.850;7.578;2023-06-22T00:49:23;13.43;;;5.00;;
77870;SDS011;67067;46.850;7.578;2023-06-22T00:50:29;12.88;;;5.43;;
77870;SDS011;67067;46.850;7.578;2023-06-22T00:51:37;12.18;;;5.43;;
77870;SDS011;67067;46.850;7.578;2023-06-22T00:52:39;13.63;;;4.90;;
77870;SDS011;67067;46.850;7.578;2023-06-22T00:53:45;10.82;;;5.10;;
77870;SDS011;67067;46.850;7.578;2023-06-22T00:54:50;15.70;;;5.40;;
77870;SDS011;67067;46.850;7.578;2023-06-22T00:55:54;16.38;;;5.53;;
77870;SDS011;67067;46.850;7.578;2023-06-22T00:56:56;15.02;;;5.57;;
77870;SDS011;67067;46.850;7.578;2023-06-22T00:57:59;18.40;;;5.43;;
77870;SDS011;67067;46.850;7.578;2023-06-22T01:00:05;12.18;;;4.82;;
77870;SDS011;67067;46.850;7.578;2023-06-22T01:01:10;11.05;;;5.15;;
77870;SDS011;67067;46.850;7.578;2023-06-22T01:03:14;14.50;;;4.78;;
77870;SDS011;67067;46.850;7.578;2023-06-22T01:04:18;11.27;;;5.20;;
77870;SDS011;67067;46.850;7.578;2023-06-22T01:05:23;10.52;;;4.82;;
77870;SDS011;67067;46.850;7.578;2023-06-22T01:06:34;12.07;;;5.15;;
77870;SDS011;67067;46.850;7.578;2023-06-22T01:09:00;15.10;;;5.25;;
77870;SDS011;67067;46.850;7.578;2023-06-22T01:11:13;11.45;;;4.70;;
77870;SDS011;67067;46.850;7.578;2023-06-22T01:12:19;9.63;;;4.57;;
77870;SDS011;67067;46.850;7.578;2023-06-22T01:14:50;12.95;;;5.82;;
77870;SDS011;67067;46.850;7.578;2023-06-22T01:16:08;15.93;;;5.25;;
77870;SDS011;67067;46.850;7.578;2023-06-22T01:17:21;13.55;;;4.85;;
77870;SDS011;67067;46.850;7.578;2023-06-22T01:18:25;13.20;;;4.97;;
77870;SDS011;67067;46.850;7.578;2023-06-22T01:19:47;12.10;;;4.82;;
77870;SDS011;67067;46.850;7.578;2023-06-22T01:20:57;11.80;;;5.20;;
77870;SDS011;67067;46.850;7.578;2023-06-22T01:21:59;15.35;;;4.97;;
77870;SDS011;67067;46.850;7.578;2023-06-22T01:29:51;13.07;;;4.88;;
77870;SDS011;67067;46.850;7.578;2023-06-22T01:31:01;13.18;;;4.65;;
77870;SDS011;67067;46.850;7.578;2023-06-22T01:32:09;19.83;;;5.55;;
77870;SDS011;67067;46.850;7.578;2023-06-22T01:33:13;16.90;;;5.45;;
77870;SDS011;67067;46.850;7.578;2023-06-22T01:34:18;17.52;;;5.10;;
77870;SDS011;67067;46.850;7.578;2023-06-22T01:35:20;9.65;;;5.25;;
77870;SDS011;67067;46.850;7.578;2023-06-22T01:36:23;11.70;;;5.10;;
77870;SDS011;67067;46.850;7.578;2023-06-22T01:37:28;18.00;;;5.80;;
77870;SDS011;67067;46.850;7.578;2023-06-22T01:38:31;14.68;;;4.82;;
77870;SDS011;67067;46.850;7.578;2023-06-22T01:39:34;16.85;;;4.95;;
77870;SDS011;67067;46.850;7.578;2023-06-22T01:40:37;15.68;;;5.07;;
77870;SDS011;67067;46.850;7.578;2023-06-22T01:41:39;11.73;;;5.70;;
77870;SDS011;67067;46.850;7.578;2023-06-22T01:42:43;14.80;;;5.60;;
77870;SDS011;67067;46.850;7.578;2023-06-22T01:43:51;16.33;;;5.88;;
77870;SDS011;67067;46.850;7.578;2023-06-22T01:44:55;12.88;;;5.32;;
77870;SDS011;67067;46.850;7.578;2023-06-22T01:45:59;12.30;;;5.47;;
77870;SDS011;67067;46.850;7.578;2023-06-22T01:47:02;12.48;;;4.75;;
77870;SDS011;67067;46.850;7.578;2023-06-22T01:48:04;15.60;;;4.88;;
77870;SDS011;67067;46.850;7.578;2023-06-22T01:49:09;17.50;;;5.45;;
77870;SDS011;67067;46.850;7.578;2023-06-22T01:50:11;16.17;;;5.28;;
77870;SDS011;67067;46.850;7.578;2023-06-22T01:51:13;15.55;;;5.28;;
77870;SDS011;67067;46.850;7.578;2023-06-22T01:52:20;17.33;;;5.28;;
77870;SDS011;67067;46.850;7.578;2023-06-22T01:53:23;13.07;;;5.22;;
77870;SDS011;67067;46.850;7.578;2023-06-22T01:54:26;16.30;;;5.45;;
77870;SDS011;67067;46.850;7.578;2023-06-22T01:55:32;9.93;;;4.95;;
77870;SDS011;67067;46.850;7.578;2023-06-22T01:57:38;11.55;;;5.07;;
77870;SDS011;67067;46.850;7.578;2023-06-22T01:58:55;14.80;;;4.72;;
77870;SDS011;67067;46.850;7.578;2023-06-22T02:00:11;14.10;;;5.10;;
77870;SDS011;67067;46.850;7.578;2023-06-22T02:01:18;19.20;;;5.47;;
77870;SDS011;67067;46.850;7.578;2023-06-22T02:02:27;12.13;;;5.60;;
77870;SDS011;67067;46.850;7.578;2023-06-22T02:03:41;10.68;;;4.90;;
77870;SDS011;67067;46.850;7.578;2023-06-22T02:05:07;10.85;;;5.00;;
77870;SDS011;67067;46.850;7.578;2023-06-22T02:06:15;13.50;;;5.00;;
77870;SDS011;67067;46.850;7.578;2023-06-22T02:07:20;13.90;;;5.60;;
77870;SDS011;67067;46.850;7.578;2023-06-22T02:08:27;10.70;;;5.30;;
77870;SDS011;67067;46.850;7.578;2023-06-22T02:09:33;11.73;;;5.40;;
77870;SDS011;67067;46.850;7.578;2023-06-22T02:10:37;18.88;;;5.93;;
77870;SDS011;67067;46.850;7.578;2023-06-22T02:11:43;14.18;;;5.82;;
77870;SDS011;67067;46.850;7.578;2023-06-22T02:12:48;13.40;;;5.18;;
77870;SDS011;67067;46.850;7.578;2023-06-22T02:13:51;14.85;;;5.30;;
77870;SDS011;67067;46.850;7.578;2023-06-22T02:14:55;18.13;;;5.30;;
77870;SDS011;67067;46.850;7.578;2023-06-22T02:15:58;18.13;;;5.50;;
77870;SDS011;67067;46.850;7.578;2023-06-22T02:17:00;15.38;;;5.78;;
77870;SDS011;67067;46.850;7.578;2023-06-22T02:18:02;15.50;;;5.40;;
77870;SDS011;67067;46.850;7.578;2023-06-22T02:19:05;16.02;;;5.28;;
77870;SDS011;67067;46.850;7.578;2023-06-22T02:20:11;16.13;;;5.65;;
77870;SDS011;67067;46.850;7.578;2023-06-22T02:21:17;19.27;;;5.97;;
77870;SDS011;67067;46.850;7.578;2023-06-22T02:22:22;18.05;;;5.75;;
77870;SDS011;67067;46.850;7.578;2023-06-22T02:23:26;16.27;;;5.45;;
77870;SDS011;67067;46.850;7.578;2023-06-22T02:24:28;16.83;;;6.03;;
77870;SDS011;67067;46.850;7.578;2023-06-22T02:25:35;18.77;;;5.82;;
77870;SDS011;67067;46.850;7.578;2023-06-22T02:26:39;16.05;;;5.82;;
77870;SDS011;67067;46.850;7.578;2023-06-22T02:27:43;12.73;;;5.47;;
77870;SDS011;67067;46.850;7.578;2023-06-22T02:29:51;10.32;;;5.10;;
77870;SDS011;67067;46.850;7.578;2023-06-22T02:30:53;16.70;;;6.22;;
77870;SDS011;67067;46.850;7.578;2023-06-22T02:32:56;13.35;;;5.75;;
77870;SDS011;67067;46.850;7.578;2023-06-22T02:34:01;8.77;;;5.28;;
77870;SDS011;67067;46.850;7.578;2023-06-22T02:35:06;15.65;;;5.88;;
77870;SDS011;67067;46.850;7.578;2023-06-22T02:36:08;15.32;;;5.68;;
77870;SDS011;67067;46.850;7.578;2023-06-22T02:37:14;15.38;;;5.50;;
77870;SDS011;67067;46.850;7.578;2023-06-22T02:38:16;17.42;;;5.30;;
77870;SDS011;67067;46.850;7.578;2023-06-22T02:39:22;13.68;;;6.10;;
77870;SDS011;67067;46.850;7.578;2023-06-22T02:40:25;15.23;;;5.25;;
77870;SDS011;67067;46.850;7.578;2023-06-22T02:41:27;16.98;;;6.43;;
77870;SDS011;67067;46.850;7.578;2023-06-22T02:42:30;17.55;;;5.70;;
77870;SDS011;67067;46.850;7.578;2023-06-22T02:44:36;18.05;;;5.90;;
77870;SDS011;67067;46.850;7.578;2023-06-22T02:45:38;22.20;;;6.15;;
77870;SDS011;67067;46.850;7.578;2023-06-22T02:46:40;15.35;;;6.10;;
77870;SDS011;67067;46.850;7.578;2023-06-22T02:47:42;13.90;;;5.80;;
77870;SDS011;67067;46.850;7.578;2023-06-22T02:48:46;16.27;;;5.40;;
77870;SDS011;67067;46.850;7.578;2023-06-22T02:49:49;13.95;;;5.65;;
77870;SDS011;67067;46.850;7.578;2023-06-22T02:51:56;16.08;;;5.45;;
77870;SDS011;67067;46.850;7.578;2023-06-22T02:52:59;12.82;;;5.40;;
77870;SDS011;67067;46.850;7.578;2023-06-22T02:54:03;13.63;;;5.45;;
77870;SDS011;67067;46.850;7.578;2023-06-22T02:55:05;15.77;;;5.57;;
77870;SDS011;67067;46.850;7.578;2023-06-22T02:56:11;16.77;;;5.28;;
77870;SDS011;67067;46.850;7.578;2023-06-22T02:57:14;15.93;;;5.75;;
77870;SDS011;67067;46.850;7.578;2023-06-22T02:58:17;9.68;;;4.70;;
77870;SDS011;67067;46.850;7.578;2023-06-22T02:59:19;16.80;;;5.72;;
77870;SDS011;67067;46.850;7.578;2023-06-22T03:00:28;15.98;;;6.00;;
77870;SDS011;67067;46.850;7.578;2023-06-22T03:01:32;15.27;;;5.65;;
77870;SDS011;67067;46.850;7.578;2023-06-22T03:02:40;12.32;;;4.90;;
77870;SDS011;67067;46.850;7.578;2023-06-22T03:03:44;16.20;;;5.32;;
77870;SDS011;67067;46.850;7.578;2023-06-22T03:04:48;13.73;;;5.38;;
77870;SDS011;67067;46.850;7.578;2023-06-22T03:05:53;14.85;;;5.15;;
77870;SDS011;67067;46.850;7.578;2023-06-22T03:06:58;14.18;;;5.38;;
77870;SDS011;67067;46.850;7.578;2023-06-22T03:08:06;17.80;;;5.60;;
77870;SDS011;67067;46.850;7.578;2023-06-22T03:09:09;15.15;;;5.70;;
77870;SDS011;67067;46.850;7.578;2023-06-22T03:10:13;14.80;;;5.18;;
77870;SDS011;67067;46.850;7.578;2023-06-22T03:11:18;12.93;;;5.43;;
77870;SDS011;67067;46.850;7.578;2023-06-22T03:13:26;17.23;;;5.43;;
77870;SDS011;67067;46.850;7.578;2023-06-22T03:14:28;20.35;;;5.35;;
77870;SDS011;67067;46.850;7.578;2023-06-22T03:17:37;15.25;;;5.70;;
77870;SDS011;67067;46.850;7.578;2023-06-22T03:18:41;10.65;;;4.90;;
77870;SDS011;67067;46.850;7.578;2023-06-22T03:19:43;17.23;;;5.70;;
77870;SDS011;67067;46.850;7.578;2023-06-22T03:21:46;11.95;;;5.13;;
77870;SDS011;67067;46.850;7.578;2023-06-22T03:23:50;17.58;;;5.70;;
77870;SDS011;67067;46.850;7.578;2023-06-22T03:24:52;11.73;;;5.40;;
77870;SDS011;67067;46.850;7.578;2023-06-22T03:25:54;13.55;;;5.20;;
77870;SDS011;67067;46.850;7.578;2023-06-22T03:26:57;14.57;;;4.80;;
77870;SDS011;67067;46.850;7.578;2023-06-22T03:27:59;17.23;;;5.18;;
77870;SDS011;67067;46.850;7.578;2023-06-22T03:29:01;15.93;;;5.53;;
77870;SDS011;67067;46.850;7.578;2023-06-22T03:30:08;18.33;;;6.03;;
77870;SDS011;67067;46.850;7.578;2023-06-22T03:31:12;12.02;;;5.25;;
77870;SDS011;67067;46.850;7.578;2023-06-22T03:32:14;12.23;;;5.57;;
77870;SDS011;67067;46.850;7.578;2023-06-22T03:33:18;13.88;;;5.05;;
77870;SDS011;67067;46.850;7.578;2023-06-22T03:34:22;15.13;;;5.32;;
77870;SDS011;67067;46.850;7.578;2023-06-22T03:35:26;18.25;;;5.68;;
77870;SDS011;67067;46.850;7.578;2023-06-22T03:36:30;15.13;;;5.03;;
77870;SDS011;67067;46.850;7.578;2023-06-22T03:38:34;16.85;;;5.88;;
77870;SDS011;67067;46.850;7.578;2023-06-22T03:40:37;11.48;;;5.13;;
77870;SDS011;67067;46.850;7.578;2023-06-22T03:42:43;13.00;;;5.07;;
77870;SDS011;67067;46.850;7.578;2023-06-22T03:43:45;9.43;;;4.85;;
77870;SDS011;67067;46.850;7.578;2023-06-22T03:44:49;18.13;;;5.53;;
77870;SDS011;67067;46.850;7.578;2023-06-22T03:46:52;17.95;;;5.63;;
77870;SDS011;67067;46.850;7.578;2023-06-22T03:48:58;25.17;;;5.95;;
77870;SDS011;67067;46.850;7.578;2023-06-22T03:51:02;21.53;;;6.63;;
77870;SDS011;67067;46.850;7.578;2023-06-22T03:52:04;18.08;;;6.05;;
77870;SDS011;67067;46.850;7.578;2023-06-22T03:53:09;19.08;;;5.80;;
77870;SDS011;67067;46.850;7.578;2023-06-22T03:54:11;16.98;;;6.20;;
77870;SDS011;67067;46.850;7.578;2023-06-22T03:55:15;20.98;;;5.88;;
77870;SDS011;67067;46.850;7.578;2023-06-22T03:56:17;16.67;;;6.03;;
77870;SDS011;67067;46.850;7.578;2023-06-22T03:57:21;15.52;;;5.88;;
77870;SDS011;67067;46.850;7.578;2023-06-22T03:58:26;16.75;;;6.53;;
77870;SDS011;67067;46.850;7.578;2023-06-22T04:00:29;15.57;;;5.68;;
77870;SDS011;67067;46.850;7.578;2023-06-22T04:01:33;12.38;;;5.85;;
77870;SDS011;67067;46.850;7.578;2023-06-22T04:03:39;15.18;;;6.40;;
77870;SDS011;67067;46.850;7.578;2023-06-22T04:04:44;15.27;;;6.25;;
77870;SDS011;67067;46.850;7.578;2023-06-22T04:05:48;14.93;;;6.13;;
77870;SDS011;67067;46.850;7.578;2023-06-22T04:06:50;16.08;;;6.53;;
77870;SDS011;67067;46.850;7.578;2023-06-22T04:08:54;18.50;;;6.75;;
77870;SDS011;67067;46.850;7.578;2023-06-22T04:10:57;18.27;;;6.43;;
77870;SDS011;67067;46.850;7.578;2023-06-22T04:13:02;16.25;;;6.47;;
77870;SDS011;67067;46.850;7.578;2023-06-22T04:14:07;22.52;;;6.88;;
77870;SDS011;67067;46.850;7.578;2023-06-22T04:15:11;15.57;;;5.95;;
77870;SDS011;67067;46.850;7.578;2023-06-22T04:16:13;16.35;;;6.30;;
77870;SDS011;67067;46.850;7.578;2023-06-22T04:17:15;16.33;;;6.32;;
77870;SDS011;67067;46.850;7.578;2023-06-22T04:18:19;18.92;;;6.47;;
77870;SDS011;67067;46.850;7.578;2023-06-22T04:19:21;13.65;;;5.75;;
77870;SDS011;67067;46.850;7.578;2023-06-22T04:20:23;11.10;;;5.30;;
77870;SDS011;67067;46.850;7.578;2023-06-22T04:21:30;13.63;;;5.93;;
77870;SDS011;67067;46.850;7.578;2023-06-22T04:22:32;17.13;;;6.38;;
77870;SDS011;67067;46.850;7.578;2023-06-22T04:24:38;18.63;;;5.97;;
77870;SDS011;67067;46.850;7.578;2023-06-22T04:26:41;18.55;;;5.78;;
77870;SDS011;67067;46.850;7.578;2023-06-22T04:27:50;13.55;;;5.85;;
77870;SDS011;67067;46.850;7.578;2023-06-22T04:29:57;11.95;;;5.35;;
77870;SDS011;67067;46.850;7.578;2023-06-22T04:31:02;15.88;;;5.60;;
77870;SDS011;67067;46.850;7.578;2023-06-22T04:32:04;15.25;;;5.85;;
77870;SDS011;67067;46.850;7.578;2023-06-22T04:33:09;17.63;;;6.28;;
77870;SDS011;67067;46.850;7.578;2023-06-22T04:35:12;18.90;;;6.30;;
77870;SDS011;67067;46.850;7.578;2023-06-22T04:36:17;16.85;;;5.53;;
77870;SDS011;67067;46.850;7.578;2023-06-22T04:37:19;13.95;;;5.75;;
77870;SDS011;67067;46.850;7.578;2023-06-22T04:38:21;15.98;;;6.55;;
77870;SDS011;67067;46.850;7.578;2023-06-22T04:39:23;17.95;;;6.05;;
77870;SDS011;67067;46.850;7.578;2023-06-22T04:40:25;16.17;;;6.00;;
77870;SDS011;67067;46.850;7.578;2023-06-22T04:41:27;17.13;;;5.07;;
77870;SDS011;67067;46.850;7.578;2023-06-22T04:42:29;17.05;;;5.10;;
77870;SDS011;67067;46.850;7.578;2023-06-22T04:43:33;16.33;;;5.38;;
77870;SDS011;67067;46.850;7.578;2023-06-22T04:44:38;14.60;;;5.38;;
77870;SDS011;67067;46.850;7.578;2023-06-22T04:45:41;17.50;;;5.60;;
77870;SDS011;67067;46.850;7.578;2023-06-22T04:46:45;15.05;;;5.47;;
77870;SDS011;67067;46.850;7.578;2023-06-22T04:47:55;13.30;;;5.07;;
77870;SDS011;67067;46.850;7.578;2023-06-22T04:48:57;17.17;;;5.78;;
77870;SDS011;67067;46.850;7.578;2023-06-22T04:51:03;9.38;;;5.18;;
77870;SDS011;67067;46.850;7.578;2023-06-22T04:52:08;14.25;;;5.85;;
77870;SDS011;67067;46.850;7.578;2023-06-22T04:53:11;19.52;;;6.38;;
77870;SDS011;67067;46.850;7.578;2023-06-22T04:54:14;15.27;;;6.25;;
77870;SDS011;67067;46.850;7.578;2023-06-22T04:55:16;15.25;;;5.88;;
77870;SDS011;67067;46.850;7.578;2023-06-22T04:56:21;15.88;;;5.90;;
77870;SDS011;67067;46.850;7.578;2023-06-22T04:58:32;13.93;;;5.82;;
77870;SDS011;67067;46.850;7.578;2023-06-22T04:59:34;14.35;;;5.75;;
77870;SDS011;67067;46.850;7.578;2023-06-22T05:01:42;17.10;;;5.78;;
77870;SDS011;67067;46.850;7.578;2023-06-22T05:02:44;13.88;;;5.53;;
77870;SDS011;67067;46.850;7.578;2023-06-22T05:03:50;18.45;;;6.13;;
77870;SDS011;67067;46.850;7.578;2023-06-22T05:04:51;16.77;;;6.30;;
77870;SDS011;67067;46.850;7.578;2023-06-22T05:05:54;16.35;;;6.32;;
77870;SDS011;67067;46.850;7.578;2023-06-22T05:06:58;15.93;;;5.85;;
77870;SDS011;67067;46.850;7.578;2023-06-22T05:08:06;18.38;;;6.97;;
77870;SDS011;67067;46.850;7.578;2023-06-22T05:09:08;17.73;;;6.25;;
77870;SDS011;67067;46.850;7.578;2023-06-22T05:11:13;13.45;;;6.43;;
77870;SDS011;67067;46.850;7.578;2023-06-22T05:12:14;16.08;;;5.78;;
77870;SDS011;67067;46.850;7.578;2023-06-22T05:14:18;15.32;;;6.18;;
77870;SDS011;67067;46.850;7.578;2023-06-22T05:15:20;19.30;;;6.47;;
77870;SDS011;67067;46.850;7.578;2023-06-22T05:16:24;13.68;;;5.93;;
77870;SDS011;67067;46.850;7.578;2023-06-22T05:17:26;15.75;;;6.03;;
77870;SDS011;67067;46.850;7.578;2023-06-22T05:18:28;20.02;;;6.05;;
77870;SDS011;67067;46.850;7.578;2023-06-22T05:19:33;12.48;;;6.05;;
77870;SDS011;67067;46.850;7.578;2023-06-22T05:20:35;12.18;;;5.57;;
77870;SDS011;67067;46.850;7.578;2023-06-22T05:22:41;11.23;;;5.72;;
77870;SDS011;67067;46.850;7.578;2023-06-22T05:23:46;19.05;;;5.70;;
77870;SDS011;67067;46.850;7.578;2023-06-22T05:24:48;17.40;;;5.97;;
77870;SDS011;67067;46.850;7.578;2023-06-22T05:26:52;13.75;;;5.85;;
77870;SDS011;67067;46.850;7.578;2023-06-22T05:27:54;17.42;;;5.90;;
77870;SDS011;67067;46.850;7.578;2023-06-22T05:29:58;12.68;;;5.70;;
77870;SDS011;67067;46.850;7.578;2023-06-22T05:31:00;17.30;;;5.70;;
77870;SDS011;67067;46.850;7.578;2023-06-22T05:32:05;14.57;;;6.20;;
77870;SDS011;67067;46.850;7.578;2023-06-22T05:33:10;13.23;;;6.35;;
77870;SDS011;67067;46.850;7.578;2023-06-22T05:34:12;13.23;;;5.95;;
77870;SDS011;67067;46.850;7.578;2023-06-22T05:35:14;11.90;;;5.50;;
77870;SDS011;67067;46.850;7.578;2023-06-22T05:37:17;12.57;;;5.90;;
77870;SDS011;67067;46.850;7.578;2023-06-22T05:39:20;13.37;;;5.60;;
77870;SDS011;67067;46.850;7.578;2023-06-22T05:40:22;13.70;;;5.47;;
77870;SDS011;67067;46.850;7.578;2023-06-22T05:41:29;11.73;;;5.82;;
77870;SDS011;67067;46.850;7.578;2023-06-22T05:42:33;14.80;;;5.60;;
77870;SDS011;67067;46.850;7.578;2023-06-22T05:43:35;13.27;;;5.40;;
77870;SDS011;67067;46.850;7.578;2023-06-22T05:45:40;12.45;;;5.00;;
77870;SDS011;67067;46.850;7.578;2023-06-22T05:46:42;13.27;;;5.40;;
77870;SDS011;67067;46.850;7.578;2023-06-22T05:47:49;14.20;;;5.03;;
77870;SDS011;67067;46.850;7.578;2023-06-22T05:48:51;12.57;;;5.32;;
77870;SDS011;67067;46.850;7.578;2023-06-22T05:49:52;18.63;;;5.57;;
77870;SDS011;67067;46.850;7.578;2023-06-22T05:51:56;16.00;;;5.55;;
77870;SDS011;67067;46.850;7.578;2023-06-22T05:52:58;14.63;;;5.47;;
77870;SDS011;67067;46.850;7.578;2023-06-22T05:54:04;16.73;;;5.63;;
77870;SDS011;67067;46.850;7.578;2023-06-22T05:55:06;15.55;;;5.85;;
77870;SDS011;67067;46.850;7.578;2023-06-22T05:56:08;19.25;;;5.68;;
77870;SDS011;67067;46.850;7.578;2023-06-22T05:57:13;22.33;;;6.63;;
77870;SDS011;67067;46.850;7.578;2023-06-22T05:58:15;12.65;;;5.70;;
77870;SDS011;67067;46.850;7.578;2023-06-22T05:59:16;15.23;;;6.05;;
77870;SDS011;67067;46.850;7.578;2023-06-22T06:00:18;17.13;;;6.03;;
77870;SDS011;67067;46.850;7.578;2023-06-22T06:01:20;13.27;;;6.07;;
77870;SDS011;67067;46.850;7.578;2023-06-22T06:02:25;15.43;;;6.10;;
77870;SDS011;67067;46.850;7.578;2023-06-22T06:03:29;15.95;;;5.80;;
77870;SDS011;67067;46.850;7.578;2023-06-22T06:04:33;17.55;;;6.20;;
77870;SDS011;67067;46.850;7.578;2023-06-22T06:05:35;16.02;;;5.80;;
77870;SDS011;67067;46.850;7.578;2023-06-22T06:06:36;19.42;;;6.18;;
77870;SDS011;67067;46.850;7.578;2023-06-22T06:07:39;16.80;;;6.10;;
77870;SDS011;67067;46.850;7.578;2023-06-22T06:08:41;16.58;;;6.18;;
77870;SDS011;67067;46.850;7.578;2023-06-22T06:09:43;13.13;;;5.70;;
77870;SDS011;67067;46.850;7.578;2023-06-22T06:10:45;17.27;;;5.38;;
77870;SDS011;67067;46.850;7.578;2023-06-22T06:11:46;14.05;;;5.85;;
77870;SDS011;67067;46.850;7.578;2023-06-22T06:12:48;16.63;;;6.32;;
77870;SDS011;67067;46.850;7.578;2023-06-22T06:13:55;15.20;;;6.40;;
77870;SDS011;67067;46.850;7.578;2023-06-22T06:14:58;16.20;;;6.32;;
77870;SDS011;67067;46.850;7.578;2023-06-22T06:17:02;18.13;;;7.40;;
77870;SDS011;67067;46.850;7.578;2023-06-22T06:18:04;15.35;;;6.63;;
77870;SDS011;67067;46.850;7.578;2023-06-22T06:19:07;12.88;;;6.57;;
77870;SDS011;67067;46.850;7.578;2023-06-22T06:21:10;16.67;;;7.15;;
77870;SDS011;67067;46.850;7.578;2023-06-22T06:22:14;13.02;;;6.45;;
77870;SDS011;67067;46.850;7.578;2023-06-22T06:23:20;14.32;;;6.50;;
77870;SDS011;67067;46.850;7.578;2023-06-22T06:25:23;18.63;;;6.22;;
77870;SDS011;67067;46.850;7.578;2023-06-22T06:26:27;19.52;;;6.78;;
77870;SDS011;67067;46.850;7.578;2023-06-22T06:27:30;17.83;;;6.30;;
77870;SDS011;67067;46.850;7.578;2023-06-22T06:28:35;11.45;;;5.70;;
77870;SDS011;67067;46.850;7.578;2023-06-22T06:30:38;15.93;;;6.38;;
77870;SDS011;67067;46.850;7.578;2023-06-22T06:31:40;16.30;;;6.75;;
77870;SDS011;67067;46.850;7.578;2023-06-22T06:32:42;13.55;;;5.57;;
77870;SDS011;67067;46.850;7.578;2023-06-22T06:33:46;15.40;;;5.88;;
77870;SDS011;67067;46.850;7.578;2023-06-22T06:35:52;12.93;;;5.88;;
77870;SDS011;67067;46.850;7.578;2023-06-22T06:36:54;16.05;;;5.68;;
77870;SDS011;67067;46.850;7.578;2023-06-22T06:37:58;15.30;;;5.70;;
77870;SDS011;67067;46.850;7.578;2023-06-22T06:40:03;20.88;;;5.50;;
77870;SDS011;67067;46.850;7.578;2023-06-22T06:41:08;12.82;;;5.38;;
77870;SDS011;67067;46.850;7.578;2023-06-22T06:42:12;14.48;;;5.97;;
77870;SDS011;67067;46.850;7.578;2023-06-22T06:43:16;17.00;;;5.82;;
77870;SDS011;67067;46.850;7.578;2023-06-22T06:45:22;17.88;;;6.47;;
77870;SDS011;67067;46.850;7.578;2023-06-22T06:46:25;14.77;;;5.60;;
77870;SDS011;67067;46.850;7.578;2023-06-22T06:48:29;14.98;;;5.65;;
77870;SDS011;67067;46.850;7.578;2023-06-22T06:49:30;11.68;;;5.22;;
77870;SDS011;67067;46.850;7.578;2023-06-22T15:19:43;11.13;;;3.67;;
77870;SDS011;67067;46.850;7.578;2023-06-22T15:20:47;8.95;;;3.30;;
77870;SDS011;67067;46.850;7.578;2023-06-22T15:21:49;5.78;;;3.30;;
77870;SDS011;67067;46.850;7.578;2023-06-22T15:23:52;4.00;;;2.55;;
77870;SDS011;67067;46.850;7.578;2023-06-22T15:26:00;13.55;;;3.70;;
77870;SDS011;67067;46.850;7.578;2023-06-22T15:27:06;9.10;;;3.30;;
77870;SDS011;67067;46.850;7.578;2023-06-22T15:29:09;14.13;;;4.70;;
77870;SDS011;67067;46.850;7.578;2023-06-22T15:30:11;11.50;;;5.28;;
77870;SDS011;67067;46.850;7.578;2023-06-22T15:31:13;16.13;;;4.72;;
77870;SDS011;67067;46.850;7.578;2023-06-22T15:32:17;14.70;;;4.80;;
77870;SDS011;67067;46.850;7.578;2023-06-22T15:34:20;9.57;;;4.03;;
77870;SDS011;67067;46.850;7.578;2023-06-22T15:36:24;9.90;;;3.40;;
77870;SDS011;67067;46.850;7.578;2023-06-22T15:38:27;8.82;;;3.72;;
77870;SDS011;67067;46.850;7.578;2023-06-22T15:39:29;11.05;;;3.85;;
77870;SDS011;67067;46.850;7.578;2023-06-22T15:41:32;12.77;;;3.95;;
77870;SDS011;67067;46.850;7.578;2023-06-22T15:42:34;9.90;;;3.80;;
77870;SDS011;67067;46.850;7.578;2023-06-22T15:43:36;14.15;;;4.20;;
77870;SDS011;67067;46.850;7.578;2023-06-22T15:45:40;8.48;;;3.40;;
77870;SDS011;67067;46.850;7.578;2023-06-22T15:46:42;8.57;;;3.78;;
77870;SDS011;67067;46.850;7.578;2023-06-22T15:47:45;7.78;;;3.25;;
77870;SDS011;67067;46.850;7.578;2023-06-22T15:48:47;9.13;;;3.67;;
77870;SDS011;67067;46.850;7.578;2023-06-22T15:49:51;7.28;;;3.63;;
77870;SDS011;67067;46.850;7.578;2023-06-22T15:50:53;7.75;;;3.38;;
77870;SDS011;67067;46.850;7.578;2023-06-22T15:51:57;7.32;;;3.42;;
77870;SDS011;67067;46.850;7.578;2023-06-22T15:53:01;10.38;;;3.80;;
77870;SDS011;67067;46.850;7.578;2023-06-22T15:54:03;9.63;;;3.38;;
77870;SDS011;67067;46.850;7.578;2023-06-22T15:56:08;7.35;;;3.35;;
77870;SDS011;67067;46.850;7.578;2023-06-22T15:57:13;7.47;;;3.40;;
77870;SDS011;67067;46.850;7.578;2023-06-22T15:59:20;8.63;;;3.50;;
77870;SDS011;67067;46.850;7.578;2023-06-22T16:00:22;9.93;;;3.47;;
77870;SDS011;67067;46.850;7.578;2023-06-22T16:03:32;11.80;;;4.13;;
77870;SDS011;67067;46.850;7.578;2023-06-22T16:04:34;8.15;;;3.40;;
77870;SDS011;67067;46.850;7.578;2023-06-22T16:05:36;9.25;;;3.50;;
77870;SDS011;67067;46.850;7.578;2023-06-22T16:07:42;9.82;;;3.40;;
77870;SDS011;67067;46.850;7.578;2023-06-22T16:08:48;9.52;;;3.13;;
77870;SDS011;67067;46.850;7.578;2023-06-22T16:09:50;9.52;;;3.75;;
77870;SDS011;67067;46.850;7.578;2023-06-22T16:10:53;9.18;;;3.53;;
77870;SDS011;67067;46.850;7.578;2023-06-22T16:12:57;10.88;;;3.47;;
77870;SDS011;67067;46.850;7.578;2023-06-22T16:15:00;10.77;;;3.53;;